sensor_id;sensor_type;location;lat;lon;timestamp;pressure;altitude;pressure_sealevel;temperature;humidity
43436;BME280;36399;51.444;-2.018;2023-05-07T09:26:22;100965.06;;;13.88;100.00
43436;BME280;36399;51.444;-2.018;2023-05-07T09:28:48;100967.22;;;14.47;100.00
43436;BME280;36399;51.444;-2.018;2023-05-07T09:31:14;100962.69;;;14.25;100.00
43436;BME280;36399;51.444;-2.018;2023-05-07T09:33:40;100962.91;;;14.60;100.00
43436;BME280;36399;51.444;-2.018;2023-05-07T09:36:08;100966.38;;;14.55;100.00
43436;BME280;36399;51.444;-2.018;2023-05-07T09:38:35;100970.88;;;14.74;100.00
43436;BME280;36399;51.444;-2.018;2023-05-07T09:43:20;100960.19;;;14.52;100.00
43436;BME280;36399;51.444;-2.018;2023-05-07T09:45:47;100954.75;;;14.25;100.00
43436;BME280;36399;51.444;-2.018;2023-05-07T09:48:17;100958.22;;;14.18;100.00
43436;BME280;36399;51.444;-2.018;2023-05-07T09:50:49;100953.81;;;14.17;100.00
43436;BME280;36399;51.444;-2.018;2023-05-07T09:53:20;100960.22;;;14.56;100.00
43436;BME280;36399;51.444;-2.018;2023-05-07T09:55:47;100948.91;;;14.98;100.00
43436;BME280;36399;51.444;-2.018;2023-05-07T09:58:14;100936.66;;;15.44;100.00
43436;BME280;36399;51.444;-2.018;2023-05-07T10:00:42;100931.44;;;15.73;100.00
43436;BME280;36399;51.444;-2.018;2023-05-07T10:03:09;100912.72;;;16.45;100.00
43436;BME280;36399;51.444;-2.018;2023-05-07T10:05:35;100908.25;;;16.57;100.00
43436;BME280;36399;51.444;-2.018;2023-05-07T10:08:02;100909.13;;;16.71;100.00
43436;BME280;36399;51.444;-2.018;2023-05-07T10:10:29;100907.31;;;16.75;100.00
43436;BME280;36399;51.444;-2.018;2023-05-07T10:12:56;100903.25;;;17.52;100.00
43436;BME280;36399;51.444;-2.018;2023-05-07T10:15:23;100906.19;;;17.11;100.00
43436;BME280;36399;51.444;-2.018;2023-05-07T10:17:51;100914.47;;;16.50;100.00
43436;BME280;36399;51.444;-2.018;2023-05-07T10:20:18;100915.25;;;16.78;100.00
43436;BME280;36399;51.444;-2.018;2023-05-07T10:22:47;100913.47;;;16.80;100.00
43436;BME280;36399;51.444;-2.018;2023-05-07T10:25:27;100909.78;;;17.04;100.00
43436;BME280;36399;51.444;-2.018;2023-05-07T10:27:55;100909.13;;;16.70;100.00
43436;BME280;36399;51.444;-2.018;2023-05-07T10:30:40;100904.69;;;16.60;100.00
43436;BME280;36399;51.444;-2.018;2023-05-07T10:33:11;100914.50;;;16.42;100.00
43436;BME280;36399;51.444;-2.018;2023-05-07T10:35:42;100914.41;;;16.73;100.00
43436;BME280;36399;51.444;-2.018;2023-05-07T10:38:08;100922.31;;;16.79;100.00
43436;BME280;36399;51.444;-2.018;2023-05-07T10:40:35;100915.72;;;17.41;100.00
43436;BME280;36399;51.444;-2.018;2023-05-07T10:43:05;100911.53;;;17.08;100.00
43436;BME280;36399;51.444;-2.018;2023-05-07T10:45:31;100923.16;;;16.87;100.00
43436;BME280;36399;51.444;-2.018;2023-05-07T10:48:14;100925.91;;;16.72;100.00
43436;BME280;36399;51.444;-2.018;2023-05-07T10:50:44;100940.88;;;16.82;100.00
43436;BME280;36399;51.444;-2.018;2023-05-07T10:56:28;100926.31;;;17.46;100.00
43436;BME280;36399;51.444;-2.018;2023-05-07T10:58:55;100923.09;;;18.08;100.00
43436;BME280;36399;51.444;-2.018;2023-05-07T11:01:53;100909.22;;;18.60;100.00
43436;BME280;36399;51.444;-2.018;2023-05-07T11:04:20;100912.59;;;18.77;100.00
43436;BME280;36399;51.444;-2.018;2023-05-07T11:07:13;100916.41;;;18.52;100.00
43436;BME280;36399;51.444;-2.018;2023-05-07T11:12:45;100925.47;;;20.60;100.00
43436;BME280;36399;51.444;-2.018;2023-05-07T11:15:06;100931.50;;;20.24;100.00
43436;BME280;36399;51.444;-2.018;2023-05-07T11:17:33;100930.81;;;20.14;100.00
43436;BME280;36399;51.444;-2.018;2023-05-07T11:20:02;100935.47;;;20.03;100.00
43436;BME280;36399;51.444;-2.018;2023-05-07T11:24:56;100930.63;;;19.74;100.00
43436;BME280;36399;51.444;-2.018;2023-05-07T11:27:23;100930.09;;;20.94;100.00
43436;BME280;36399;51.444;-2.018;2023-05-07T11:29:50;100924.81;;;21.31;100.00
43436;BME280;36399;51.444;-2.018;2023-05-07T11:32:22;100923.78;;;20.56;100.00
43436;BME280;36399;51.444;-2.018;2023-05-07T11:34:54;100925.56;;;19.59;100.00
43436;BME280;36399;51.444;-2.018;2023-05-07T11:37:21;100923.56;;;19.14;100.00
43436;BME280;36399;51.444;-2.018;2023-05-07T11:39:47;100929.97;;;19.03;100.00
43436;BME280;36399;51.444;-2.018;2023-05-07T11:42:28;100928.06;;;19.11;100.00
43436;BME280;36399;51.444;-2.018;2023-05-07T11:44:54;100923.47;;;19.79;100.00
43436;BME280;36399;51.444;-2.018;2023-05-07T11:47:20;100926.25;;;20.21;100.00
43436;BME280;36399;51.444;-2.018;2023-05-07T11:49:48;100922.47;;;19.86;100.00
43436;BME280;36399;51.444;-2.018;2023-05-07T11:52:16;100930.19;;;20.91;100.00
43436;BME280;36399;51.444;-2.018;2023-05-07T11:54:51;100923.75;;;20.58;100.00
43436;BME280;36399;51.444;-2.018;2023-05-07T11:57:18;100911.22;;;21.03;100.00
43436;BME280;36399;51.444;-2.018;2023-05-07T11:59:44;100931.97;;;21.66;100.00
43436;BME280;36399;51.444;-2.018;2023-05-07T12:02:10;100921.63;;;22.84;100.00
43436;BME280;36399;51.444;-2.018;2023-05-07T12:04:38;100928.88;;;22.79;100.00
43436;BME280;36399;51.444;-2.018;2023-05-07T12:07:04;100918.25;;;23.63;100.00
43436;BME280;36399;51.444;-2.018;2023-05-07T12:09:35;100926.13;;;24.18;99.31
43436;BME280;36399;51.444;-2.018;2023-05-07T12:12:04;100915.72;;;23.30;100.00
43436;BME280;36399;51.444;-2.018;2023-05-07T12:14:30;100913.03;;;23.84;100.00
43436;BME280;36399;51.444;-2.018;2023-05-07T12:16:57;100913.88;;;23.60;100.00
43436;BME280;36399;51.444;-2.018;2023-05-07T12:19:23;100912.41;;;22.94;100.00
43436;BME280;36399;51.444;-2.018;2023-05-07T12:21:49;100920.88;;;21.81;100.00
43436;BME280;36399;51.444;-2.018;2023-05-07T12:24:15;100921.63;;;20.73;100.00
43436;BME280;36399;51.444;-2.018;2023-05-07T12:26:41;100917.41;;;21.78;100.00
43436;BME280;36399;51.444;-2.018;2023-05-07T12:29:07;100917.31;;;21.08;100.00
43436;BME280;36399;51.444;-2.018;2023-05-07T12:31:33;100916.16;;;20.79;100.00
43436;BME280;36399;51.444;-2.018;2023-05-07T12:33:59;100915.66;;;21.42;100.00
43436;BME280;36399;51.444;-2.018;2023-05-07T12:36:26;100921.63;;;20.29;100.00
43436;BME280;36399;51.444;-2.018;2023-05-07T12:38:54;100919.56;;;19.44;100.00
43436;BME280;36399;51.444;-2.018;2023-05-07T12:41:20;100928.03;;;19.12;100.00
43436;BME280;36399;51.444;-2.018;2023-05-07T12:43:56;100936.56;;;19.91;100.00
43436;BME280;36399;51.444;-2.018;2023-05-07T12:46:23;100933.88;;;19.93;100.00
43436;BME280;36399;51.444;-2.018;2023-05-07T12:48:49;100926.31;;;21.04;100.00
43436;BME280;36399;51.444;-2.018;2023-05-07T12:51:15;100922.59;;;22.81;100.00
43436;BME280;36399;51.444;-2.018;2023-05-07T12:53:42;100916.59;;;23.30;100.00
43436;BME280;36399;51.444;-2.018;2023-05-07T12:56:08;100914.69;;;22.77;100.00
43436;BME280;36399;51.444;-2.018;2023-05-07T12:58:35;100916.13;;;22.90;100.00
43436;BME280;36399;51.444;-2.018;2023-05-07T13:01:05;100922.56;;;23.39;100.00
43436;BME280;36399;51.444;-2.018;2023-05-07T13:03:33;100934.13;;;21.52;100.00
43436;BME280;36399;51.444;-2.018;2023-05-07T13:06:01;100937.41;;;20.86;100.00
43436;BME280;36399;51.444;-2.018;2023-05-07T13:08:35;100940.78;;;20.52;100.00
43436;BME280;36399;51.444;-2.018;2023-05-07T13:11:03;100936.13;;;21.78;100.00
43436;BME280;36399;51.444;-2.018;2023-05-07T13:13:34;100939.50;;;22.83;100.00
43436;BME280;36399;51.444;-2.018;2023-05-07T13:16:01;100938.91;;;23.31;100.00
43436;BME280;36399;51.444;-2.018;2023-05-07T13:18:30;100941.06;;;23.48;100.00
43436;BME280;36399;51.444;-2.018;2023-05-07T13:20:56;100941.03;;;23.76;100.00
43436;BME280;36399;51.444;-2.018;2023-05-07T13:23:22;100938.03;;;22.72;100.00
43436;BME280;36399;51.444;-2.018;2023-05-07T13:25:49;100946.88;;;22.44;100.00
43436;BME280;36399;51.444;-2.018;2023-05-07T13:28:15;100943.63;;;21.63;100.00
43436;BME280;36399;51.444;-2.018;2023-05-07T13:30:41;100944.94;;;21.07;100.00
43436;BME280;36399;51.444;-2.018;2023-05-07T13:33:07;100940.84;;;22.02;100.00
43436;BME280;36399;51.444;-2.018;2023-05-07T13:35:33;100942.25;;;22.17;100.00
43436;BME280;36399;51.444;-2.018;2023-05-07T13:37:59;100943.09;;;22.19;100.00
43436;BME280;36399;51.444;-2.018;2023-05-07T13:40:25;100939.06;;;21.67;100.00
43436;BME280;36399;51.444;-2.018;2023-05-07T13:42:51;100946.88;;;21.40;100.00
43436;BME280;36399;51.444;-2.018;2023-05-07T13:45:18;100939.97;;;21.30;100.00
43436;BME280;36399;51.444;-2.018;2023-05-07T13:47:48;100935.81;;;22.24;100.00
43436;BME280;36399;51.444;-2.018;2023-05-07T13:50:15;100937.78;;;23.66;100.00
43436;BME280;36399;51.444;-2.018;2023-05-07T13:52:42;100938.09;;;23.83;100.00
43436;BME280;36399;51.444;-2.018;2023-05-07T13:55:11;100936.13;;;23.88;100.00
43436;BME280;36399;51.444;-2.018;2023-05-07T13:57:38;100932.75;;;23.27;100.00
43436;BME280;36399;51.444;-2.018;2023-05-07T14:00:05;100938.94;;;24.83;100.00
43436;BME280;36399;51.444;-2.018;2023-05-07T14:02:31;100942.41;;;24.64;100.00
43436;BME280;36399;51.444;-2.018;2023-05-07T14:04:57;100942.06;;;24.73;100.00
43436;BME280;36399;51.444;-2.018;2023-05-07T14:07:23;100935.03;;;24.45;99.48
43436;BME280;36399;51.444;-2.018;2023-05-07T14:09:49;100934.59;;;23.81;100.00
43436;BME280;36399;51.444;-2.018;2023-05-07T14:12:15;100945.91;;;24.41;100.00
43436;BME280;36399;51.444;-2.018;2023-05-07T14:14:41;100933.97;;;24.00;100.00
43436;BME280;36399;51.444;-2.018;2023-05-07T14:17:07;100946.22;;;23.54;100.00
43436;BME280;36399;51.444;-2.018;2023-05-07T14:19:34;100943.81;;;25.21;96.38
43436;BME280;36399;51.444;-2.018;2023-05-07T14:22:00;100935.81;;;24.72;97.27
43436;BME280;36399;51.444;-2.018;2023-05-07T14:24:25;100943.91;;;24.71;98.78
43436;BME280;36399;51.444;-2.018;2023-05-07T14:26:51;100954.19;;;23.83;100.00
43436;BME280;36399;51.444;-2.018;2023-05-07T14:29:17;100940.41;;;24.69;100.00
43436;BME280;36399;51.444;-2.018;2023-05-07T14:31:45;100950.94;;;25.87;95.54
43436;BME280;36399;51.444;-2.018;2023-05-07T14:34:11;100938.59;;;26.83;81.86
43436;BME280;36399;51.444;-2.018;2023-05-07T14:36:37;100949.31;;;25.61;83.78
43436;BME280;36399;51.444;-2.018;2023-05-07T14:39:04;100950.63;;;23.56;100.00
43436;BME280;36399;51.444;-2.018;2023-05-07T14:41:29;100952.56;;;24.56;100.00
43436;BME280;36399;51.444;-2.018;2023-05-07T14:43:56;100944.84;;;24.70;100.00
43436;BME280;36399;51.444;-2.018;2023-05-07T14:46:24;100949.16;;;24.97;93.69
43436;BME280;36399;51.444;-2.018;2023-05-07T14:48:51;100951.69;;;24.30;100.00
43436;BME280;36399;51.444;-2.018;2023-05-07T14:51:17;100952.16;;;22.77;100.00
43436;BME280;36399;51.444;-2.018;2023-05-07T14:53:43;100945.13;;;23.04;100.00
43436;BME280;36399;51.444;-2.018;2023-05-07T14:56:09;100950.16;;;23.97;100.00
43436;BME280;36399;51.444;-2.018;2023-05-07T14:58:35;100943.97;;;23.68;100.00
43436;BME280;36399;51.444;-2.018;2023-05-07T15:01:01;100953.84;;;24.19;100.00
43436;BME280;36399;51.444;-2.018;2023-05-07T15:03:27;100951.28;;;24.66;100.00
43436;BME280;36399;51.444;-2.018;2023-05-07T15:05:53;100945.19;;;25.31;98.14
43436;BME280;36399;51.444;-2.018;2023-05-07T15:08:19;100952.75;;;25.87;90.12
43436;BME280;36399;51.444;-2.018;2023-05-07T15:10:45;100946.94;;;25.32;85.94
43436;BME280;36399;51.444;-2.018;2023-05-07T15:13:12;100956.09;;;25.50;80.73
43436;BME280;36399;51.444;-2.018;2023-05-07T15:15:38;100953.34;;;25.73;82.32
43436;BME280;36399;51.444;-2.018;2023-05-07T15:18:04;100955.47;;;24.96;82.79
43436;BME280;36399;51.444;-2.018;2023-05-07T15:20:31;100963.34;;;24.29;90.19
43436;BME280;36399;51.444;-2.018;2023-05-07T15:22:57;100964.94;;;24.83;85.09
43436;BME280;36399;51.444;-2.018;2023-05-07T15:25:23;100961.53;;;23.50;96.04
43436;BME280;36399;51.444;-2.018;2023-05-07T15:27:49;100962.13;;;24.13;98.63
43436;BME280;36399;51.444;-2.018;2023-05-07T15:30:16;100960.72;;;24.52;99.09
43436;BME280;36399;51.444;-2.018;2023-05-07T15:32:42;100964.97;;;25.06;94.22
43436;BME280;36399;51.444;-2.018;2023-05-07T15:35:09;100962.75;;;23.39;100.00
43436;BME280;36399;51.444;-2.018;2023-05-07T15:37:35;100959.00;;;22.87;100.00
43436;BME280;36399;51.444;-2.018;2023-05-07T15:40:01;100966.22;;;22.85;100.00
43436;BME280;36399;51.444;-2.018;2023-05-07T15:42:32;100956.75;;;24.63;100.00
43436;BME280;36399;51.444;-2.018;2023-05-07T15:44:58;100959.50;;;24.36;95.96
43436;BME280;36399;51.444;-2.018;2023-05-07T15:47:26;100965.50;;;23.09;100.00
43436;BME280;36399;51.444;-2.018;2023-05-07T15:49:52;100967.56;;;22.36;100.00
43436;BME280;36399;51.444;-2.018;2023-05-07T15:52:18;100971.69;;;22.17;100.00
43436;BME280;36399;51.444;-2.018;2023-05-07T15:54:44;100966.03;;;21.58;100.00
43436;BME280;36399;51.444;-2.018;2023-05-07T15:57:10;100966.03;;;20.77;100.00
43436;BME280;36399;51.444;-2.018;2023-05-07T15:59:36;100969.53;;;20.79;100.00
43436;BME280;36399;51.444;-2.018;2023-05-07T16:02:02;100977.38;;;20.89;100.00
43436;BME280;36399;51.444;-2.018;2023-05-07T16:04:28;100970.34;;;20.38;100.00
43436;BME280;36399;51.444;-2.018;2023-05-07T16:06:54;100979.22;;;20.42;100.00
43436;BME280;36399;51.444;-2.018;2023-05-07T16:09:21;100980.03;;;20.89;100.00
43436;BME280;36399;51.444;-2.018;2023-05-07T16:11:47;100977.31;;;20.47;100.00
43436;BME280;36399;51.444;-2.018;2023-05-07T16:14:13;100981.31;;;20.22;100.00
43436;BME280;36399;51.444;-2.018;2023-05-07T16:16:39;100974.06;;;20.28;100.00
43436;BME280;36399;51.444;-2.018;2023-05-07T16:19:06;100972.03;;;20.89;100.00
43436;BME280;36399;51.444;-2.018;2023-05-07T16:21:32;100976.53;;;22.35;100.00
43436;BME280;36399;51.444;-2.018;2023-05-07T16:23:58;100977.31;;;22.40;100.00
43436;BME280;36399;51.444;-2.018;2023-05-07T16:26:24;100979.53;;;22.23;100.00
43436;BME280;36399;51.444;-2.018;2023-05-07T16:28:50;100975.22;;;21.82;100.00
43436;BME280;36399;51.444;-2.018;2023-05-07T16:31:17;100968.66;;;22.61;100.00
43436;BME280;36399;51.444;-2.018;2023-05-07T16:33:43;100962.66;;;23.43;100.00
43436;BME280;36399;51.444;-2.018;2023-05-07T16:36:12;100958.69;;;23.27;100.00
43436;BME280;36399;51.444;-2.018;2023-05-07T16:38:40;100963.97;;;22.70;100.00
43436;BME280;36399;51.444;-2.018;2023-05-07T16:41:09;100962.03;;;23.63;100.00
43436;BME280;36399;51.444;-2.018;2023-05-07T16:43:35;100960.97;;;24.70;94.81
43436;BME280;36399;51.444;-2.018;2023-05-07T16:46:01;100969.44;;;23.81;100.00
43436;BME280;36399;51.444;-2.018;2023-05-07T16:48:27;100962.97;;;23.33;100.00
43436;BME280;36399;51.444;-2.018;2023-05-07T16:50:53;100972.88;;;22.39;100.00
43436;BME280;36399;51.444;-2.018;2023-05-07T16:53:19;100977.56;;;21.20;100.00
43436;BME280;36399;51.444;-2.018;2023-05-07T16:55:45;100963.97;;;20.92;100.00
43436;BME280;36399;51.444;-2.018;2023-05-07T16:58:11;100966.75;;;20.86;100.00
43436;BME280;36399;51.444;-2.018;2023-05-07T17:00:38;100965.94;;;20.37;100.00
43436;BME280;36399;51.444;-2.018;2023-05-07T17:03:04;100972.31;;;19.79;100.00
43436;BME280;36399;51.444;-2.018;2023-05-07T17:05:30;100969.16;;;19.54;100.00
43436;BME280;36399;51.444;-2.018;2023-05-07T17:07:57;100964.97;;;19.35;100.00
43436;BME280;36399;51.444;-2.018;2023-05-07T17:10:23;100967.09;;;19.72;100.00
43436;BME280;36399;51.444;-2.018;2023-05-07T17:12:50;100967.56;;;19.97;100.00
43436;BME280;36399;51.444;-2.018;2023-05-07T17:15:16;100964.41;;;19.72;100.00
43436;BME280;36399;51.444;-2.018;2023-05-07T17:17:42;100961.53;;;20.35;100.00
43436;BME280;36399;51.444;-2.018;2023-05-07T17:20:09;100958.31;;;20.64;100.00
43436;BME280;36399;51.444;-2.018;2023-05-07T17:22:35;100958.69;;;20.89;100.00
43436;BME280;36399;51.444;-2.018;2023-05-07T17:25:01;100964.47;;;20.67;100.00
43436;BME280;36399;51.444;-2.018;2023-05-07T17:27:29;100961.75;;;20.23;100.00
43436;BME280;36399;51.444;-2.018;2023-05-07T17:29:56;100960.88;;;21.10;100.00
43436;BME280;36399;51.444;-2.018;2023-05-07T17:32:22;100962.97;;;20.96;100.00
43436;BME280;36399;51.444;-2.018;2023-05-07T17:34:48;100972.00;;;20.47;100.00
43436;BME280;36399;51.444;-2.018;2023-05-07T17:37:14;100968.47;;;20.45;100.00
43436;BME280;36399;51.444;-2.018;2023-05-07T17:39:40;100965.03;;;20.38;100.00
43436;BME280;36399;51.444;-2.018;2023-05-07T17:42:06;100970.44;;;19.84;100.00
43436;BME280;36399;51.444;-2.018;2023-05-07T17:44:33;100971.44;;;19.17;100.00
43436;BME280;36399;51.444;-2.018;2023-05-07T17:46:59;100965.47;;;19.02;100.00
43436;BME280;36399;51.444;-2.018;2023-05-07T17:49:25;100974.66;;;18.76;100.00
43436;BME280;36399;51.444;-2.018;2023-05-07T17:51:51;100971.75;;;18.96;100.00
43436;BME280;36399;51.444;-2.018;2023-05-07T17:54:18;100984.09;;;19.02;100.00
43436;BME280;36399;51.444;-2.018;2023-05-07T17:56:44;100977.94;;;18.97;100.00
43436;BME280;36399;51.444;-2.018;2023-05-07T17:59:10;100975.97;;;19.11;100.00
43436;BME280;36399;51.444;-2.018;2023-05-07T18:01:36;100974.47;;;18.91;100.00
43436;BME280;36399;51.444;-2.018;2023-05-07T18:04:03;100974.38;;;18.99;100.00
43436;BME280;36399;51.444;-2.018;2023-05-07T18:06:28;100987.19;;;18.65;100.00
43436;BME280;36399;51.444;-2.018;2023-05-07T18:08:54;100981.22;;;18.42;100.00
43436;BME280;36399;51.444;-2.018;2023-05-07T18:11:22;100985.78;;;18.32;100.00
43436;BME280;36399;51.444;-2.018;2023-05-07T18:13:48;100982.19;;;18.35;100.00
43436;BME280;36399;51.444;-2.018;2023-05-07T18:16:14;100989.56;;;18.05;100.00
43436;BME280;36399;51.444;-2.018;2023-05-07T18:18:42;100986.94;;;18.01;100.00
43436;BME280;36399;51.444;-2.018;2023-05-07T18:21:08;100986.97;;;17.99;100.00
43436;BME280;36399;51.444;-2.018;2023-05-07T18:23:40;100997.53;;;18.07;100.00
43436;BME280;36399;51.444;-2.018;2023-05-07T18:26:06;100995.06;;;17.84;100.00
43436;BME280;36399;51.444;-2.018;2023-05-07T18:28:32;101005.63;;;17.93;100.00
43436;BME280;36399;51.444;-2.018;2023-05-07T18:30:58;100999.53;;;17.80;100.00
43436;BME280;36399;51.444;-2.018;2023-05-07T18:33:24;101004.91;;;17.63;100.00
43436;BME280;36399;51.444;-2.018;2023-05-07T18:35:50;101004.94;;;17.66;100.00
43436;BME280;36399;51.444;-2.018;2023-05-07T18:38:16;101006.78;;;17.51;100.00
43436;BME280;36399;51.444;-2.018;2023-05-07T18:40:42;101008.78;;;17.12;100.00
43436;BME280;36399;51.444;-2.018;2023-05-07T18:43:09;101018.63;;;16.87;100.00
43436;BME280;36399;51.444;-2.018;2023-05-07T18:45:35;101015.97;;;16.87;100.00
43436;BME280;36399;51.444;-2.018;2023-05-07T18:48:04;101026.63;;;16.74;100.00
43436;BME280;36399;51.444;-2.018;2023-05-07T18:50:31;101017.78;;;16.62;100.00
43436;BME280;36399;51.444;-2.018;2023-05-07T18:52:57;101028.44;;;16.38;100.00
43436;BME280;36399;51.444;-2.018;2023-05-07T18:55:24;101036.41;;;16.33;100.00
43436;BME280;36399;51.444;-2.018;2023-05-07T18:57:49;101034.66;;;16.05;100.00
43436;BME280;36399;51.444;-2.018;2023-05-07T19:00:16;101044.38;;;15.77;100.00
43436;BME280;36399;51.444;-2.018;2023-05-07T19:02:42;101044.28;;;15.56;100.00
43436;BME280;36399;51.444;-2.018;2023-05-07T19:05:08;101053.97;;;15.40;100.00
43436;BME280;36399;51.444;-2.018;2023-05-07T19:07:34;101054.81;;;15.28;100.00
43436;BME280;36399;51.444;-2.018;2023-05-07T19:10:00;101069.75;;;15.09;100.00
43436;BME280;36399;51.444;-2.018;2023-05-07T19:12:26;101062.63;;;14.99;100.00
43436;BME280;36399;51.444;-2.018;2023-05-07T19:14:53;101062.56;;;14.89;100.00
43436;BME280;36399;51.444;-2.018;2023-05-07T19:17:18;101067.78;;;14.75;100.00
43436;BME280;36399;51.444;-2.018;2023-05-07T19:19:47;101067.75;;;14.64;100.00
43436;BME280;36399;51.444;-2.018;2023-05-07T19:22:14;101074.69;;;14.53;100.00
43436;BME280;36399;51.444;-2.018;2023-05-07T19:24:40;101071.94;;;14.39;100.00
43436;BME280;36399;51.444;-2.018;2023-05-07T19:27:06;101083.28;;;14.26;100.00
43436;BME280;36399;51.444;-2.018;2023-05-07T19:29:34;101086.66;;;14.07;100.00
43436;BME280;36399;51.444;-2.018;2023-05-07T19:32:00;101092.63;;;13.90;100.00
43436;BME280;36399;51.444;-2.018;2023-05-07T19:34:26;101100.41;;;13.75;100.00
43436;BME280;36399;51.444;-2.018;2023-05-07T19:36:52;101105.47;;;13.54;100.00
43436;BME280;36399;51.444;-2.018;2023-05-07T19:39:18;101109.66;;;13.38;100.00
43436;BME280;36399;51.444;-2.018;2023-05-07T19:41:44;101117.47;;;13.27;100.00
43436;BME280;36399;51.444;-2.018;2023-05-07T19:44:10;101129.75;;;13.25;100.00
43436;BME280;36399;51.444;-2.018;2023-05-07T19:46:36;101132.19;;;13.13;100.00
43436;BME280;36399;51.444;-2.018;2023-05-07T19:49:05;101144.47;;;13.11;100.00
43436;BME280;36399;51.444;-2.018;2023-05-07T19:51:30;101151.38;;;13.03;100.00
43436;BME280;36399;51.444;-2.018;2023-05-07T19:53:58;101160.06;;;12.98;100.00
43436;BME280;36399;51.444;-2.018;2023-05-07T19:56:24;101164.28;;;12.85;100.00
43436;BME280;36399;51.444;-2.018;2023-05-07T19:58:50;101176.41;;;12.74;100.00
43436;BME280;36399;51.444;-2.018;2023-05-07T20:01:17;101173.63;;;12.64;100.00
43436;BME280;36399;51.444;-2.018;2023-05-07T20:03:43;101179.56;;;12.51;100.00
43436;BME280;36399;51.444;-2.018;2023-05-07T20:06:09;101195.16;;;12.39;100.00
43436;BME280;36399;51.444;-2.018;2023-05-07T20:08:35;101201.03;;;12.24;100.00
43436;BME280;36399;51.444;-2.018;2023-05-07T20:11:01;101213.94;;;12.11;100.00
43436;BME280;36399;51.444;-2.018;2023-05-07T20:13:27;101219.00;;;11.98;100.00
43436;BME280;36399;51.444;-2.018;2023-05-07T20:15:58;101233.66;;;11.87;100.00
43436;BME280;36399;51.444;-2.018;2023-05-07T20:18:26;101241.38;;;11.78;100.00
43436;BME280;36399;51.444;-2.018;2023-05-07T20:20:52;101243.72;;;11.66;100.00
43436;BME280;36399;51.444;-2.018;2023-05-07T20:23:18;101245.28;;;11.56;100.00
43436;BME280;36399;51.444;-2.018;2023-05-07T20:25:46;101256.63;;;11.54;100.00
43436;BME280;36399;51.444;-2.018;2023-05-07T20:28:12;101254.78;;;11.50;100.00
43436;BME280;36399;51.444;-2.018;2023-05-07T20:30:38;101256.53;;;11.49;100.00
43436;BME280;36399;51.444;-2.018;2023-05-07T20:33:04;101260.03;;;11.50;100.00
43436;BME280;36399;51.444;-2.018;2023-05-07T20:35:30;101261.50;;;11.38;100.00
43436;BME280;36399;51.444;-2.018;2023-05-07T20:37:56;101275.44;;;11.34;100.00
43436;BME280;36399;51.444;-2.018;2023-05-07T20:40:23;101277.22;;;11.35;100.00
43436;BME280;36399;51.444;-2.018;2023-05-07T20:42:48;101278.69;;;11.23;100.00
43436;BME280;36399;51.444;-2.018;2023-05-07T20:45:15;101281.16;;;11.17;100.00
43436;BME280;36399;51.444;-2.018;2023-05-07T20:47:41;101281.03;;;11.11;100.00
43436;BME280;36399;51.444;-2.018;2023-05-07T20:50:07;101297.47;;;11.02;100.00
43436;BME280;36399;51.444;-2.018;2023-05-07T20:52:34;101297.63;;;11.08;100.00
43436;BME280;36399;51.444;-2.018;2023-05-07T20:55:00;101295.44;;;10.92;100.00
43436;BME280;36399;51.444;-2.018;2023-05-07T20:57:26;101299.56;;;10.82;100.00
43436;BME280;36399;51.444;-2.018;2023-05-07T20:59:52;101310.06;;;10.81;100.00
43436;BME280;36399;51.444;-2.018;2023-05-07T21:02:18;101314.38;;;10.79;100.00
43436;BME280;36399;51.444;-2.018;2023-05-07T21:04:44;101313.19;;;10.66;100.00
43436;BME280;36399;51.444;-2.018;2023-05-07T21:07:11;101321.75;;;10.59;100.00
43436;BME280;36399;51.444;-2.018;2023-05-07T21:09:37;101327.88;;;10.59;100.00
43436;BME280;36399;51.444;-2.018;2023-05-07T21:12:03;101330.66;;;10.65;100.00
43436;BME280;36399;51.444;-2.018;2023-05-07T21:14:29;101328.13;;;10.68;100.00
43436;BME280;36399;51.444;-2.018;2023-05-07T21:16:55;101336.78;;;10.64;100.00
43436;BME280;36399;51.444;-2.018;2023-05-07T21:19:21;101334.88;;;10.59;100.00
43436;BME280;36399;51.444;-2.018;2023-05-07T21:21:47;101340.94;;;10.56;100.00
43436;BME280;36399;51.444;-2.018;2023-05-07T21:24:13;101350.63;;;10.59;100.00
43436;BME280;36399;51.444;-2.018;2023-05-07T21:26:38;101348.28;;;10.69;100.00
43436;BME280;36399;51.444;-2.018;2023-05-07T21:29:04;101362.50;;;10.78;100.00
43436;BME280;36399;51.444;-2.018;2023-05-07T21:31:30;101365.38;;;10.87;100.00
43436;BME280;36399;51.444;-2.018;2023-05-07T21:33:56;101375.94;;;10.90;100.00
43436;BME280;36399;51.444;-2.018;2023-05-07T21:36:23;101376.13;;;10.96;100.00
43436;BME280;36399;51.444;-2.018;2023-05-07T21:38:48;101376.28;;;11.02;100.00
43436;BME280;36399;51.444;-2.018;2023-05-07T21:41:14;101370.38;;;11.11;100.00
43436;BME280;36399;51.444;-2.018;2023-05-07T21:43:40;101377.63;;;11.21;100.00
43436;BME280;36399;51.444;-2.018;2023-05-07T21:46:07;101379.56;;;11.28;100.00
43436;BME280;36399;51.444;-2.018;2023-05-07T21:48:33;101363.94;;;11.34;100.00
43436;BME280;36399;51.444;-2.018;2023-05-07T21:51:00;101364.03;;;11.38;100.00
43436;BME280;36399;51.444;-2.018;2023-05-07T21:53:28;101354.22;;;11.31;100.00
43436;BME280;36399;51.444;-2.018;2023-05-07T21:55:54;101353.19;;;11.25;100.00
43436;BME280;36399;51.444;-2.018;2023-05-07T21:58:20;101355.72;;;11.20;100.00
43436;BME280;36399;51.444;-2.018;2023-05-07T22:00:46;101353.72;;;11.10;100.00
43436;BME280;36399;51.444;-2.018;2023-05-07T22:03:12;101362.34;;;11.04;100.00
43436;BME280;36399;51.444;-2.018;2023-05-07T22:05:38;101353.47;;;10.99;100.00